Tiempo atmosférico en la estación meteorológica de Villacarriedo, Cantabria (194 m.)



Fecha
DESCASC
Temp. máxima en grados centígrados (hora)
DESCASC
Temp. mínima en grados centígrados (hora)
DESCASC
Temp. media en grados centígrados
DESCASC
Racha de viento máxima en m/sg (hora)
DESCASC
Velocidad máxima media en intervalos de 10 minutos(hora)
DESCASC
Precipitaciones diarias en mm
DESCASC
Precipitaciones de 00:00 a 06:00 en mm
DESCASC
Precipitaciones de 06:00 a 12:00 en mm
DESCASC
Precipitaciones de 12:00 a 18:00 en mm
DESCASC
Precipitaciones de 18:00 a 24:00 en mm
DESCASC
13-01-2021 11.8 (15:10) 0.5 (23:30) 6.2 3.89 (14:20) 1.94 (17:00) 0 0 0 0 0
12-01-2021 10.7 (14:40) 2.9 (00:00) 6.8 3.89 (15:50) 2.22 (15:30) 0 0 0 0 0
11-01-2021 7.8 (15:00) 0.6 (09:20) 4.2 5.83 (12:40) 3.33 (12:40) 0 0 0 0 0
10-01-2021 5.5 (13:50) 1.2 (01:00) 3.4 8.89 (17:00) 5 (14:10) 0.4 0.2 0 0.2 0
09-01-2021 3 (15:10) -0.6 (-00:0) 1.2 6.39 (16:50) 3.33 (17:10) 2.4 0 0 1.2 1.2
08-01-2021 5.8 (15:10) -3.2 (-00:0) 1.3 5.83 (16:10) 3.61 (16:20) 0 0 0 0 0
07-01-2021 7.4 (15:50) -4.2 (-00:0) 1.6 3.61 (16:00) 2.5 (16:20) 0 0 0 0 0
06-01-2021 6.1 (14:00) -1.3 (-00:0) 2.4 3.33 (16:50) 2.22 (16:40) 0 0 0 0 0
05-01-2021 2.6 (15:10) 0.1 (00:00) 1.3 2.5 (16:30) 1.67 (16:30) 19.2 8.4 8.6 2.2 0
04-01-2021 3.7 (06:40) 0.1 (00:00) 1.9 8.89 (03:40) 4.17 (03:50) 29.8 3.6 10.2 9.6 6.4
03-01-2021 6.2 (13:00) 1.5 (00:00) 3.8 11.67 (23:20) 4.72 (23:20) 12 4.4 2.4 2.8 2.4
02-01-2021 7.3 (14:30) 1.5 (00:00) 4.4 13.06 (03:50) 6.67 (04:00) 10.2 2.6 0 0 7.6
01-01-2021 5.4 (21:40) 1.7 (00:00) 3.6 12.5 (23:50) 5.56 (15:50) 17.6 6.8 0.2 8.4 2.2
31-12-2020 10.1 (12:00) 3.6 (00:00) 6.9 10.56 (11:40) 7.22 (12:10) 21.2 0 0 13.4 7.8
30-12-2020 7.5 (14:00) 3.5 (00:00) 5.5 12.5 (03:00) 5.28 (03:00) 10.6 5.2 2.4 3 0
29-12-2020 8.6 (14:30) 3.4 (00:00) 6 13.61 (15:10) 7.22 (15:10) 21.8 0.8 6.8 4.6 9.6
28-12-2020 9.8 (13:50) 3.9 (00:00) 6.9 21.67 (14:50) 11.11 (00:50) 17 9.6 3.6 1 2.8
27-12-2020 11 (17:00) -0.2 (00:00) 5.4 18.89 (19:20) 11.39 (19:50) 20.6 0 0.2 0 20.4
26-12-2020 8 (13:50) 1.5 (00:00) 4.8 3.89 (06:10) 2.22 (08:00) 2.8 0.6 1.2 1 0
25-12-2020 8.6 (14:20) 4.2 (00:00) 6.4 9.72 (00:50) 5 (00:50) 8.4 3.8 3.4 0 1.2
24-12-2020 10.7 (14:40) 3.9 (00:00) 7.3 10 (18:10) 5.56 (18:10) 18.6 0 0 0.2 18.4
23-12-2020 18.1 (01:10) 8.6 (00:00) 13.4 15 (04:00) 8.33 (07:40) 3.8 0 0 1.6 2.2
22-12-2020 19.3 (16:10) 13.5 (00:00) 16.4 18.33 (19:10) 11.67 (21:10) 0 0 0 0 0
21-12-2020 18.4 (15:00) 12.2 (00:00) 15.3 12.5 (00:40) 8.06 (01:10) 0.6 0.4 0 0.2 0
20-12-2020 12.9 (14:00) 2 (00:00) 7.4 12.5 (19:10) 6.39 (19:10) 0 0 0 0 0
19-12-2020 15.1 (11:20) 6.1 (00:00) 10.6 19.44 (04:00) 12.22 (04:00) 6.8 1.4 0 0 5.4

Gráficas

Temp. máximas Temp. mínimas Temp. medias Precipitaciones Rachas de viento máximas Velocidades máximas media en intervalos de 10 minutos

Datos horarios

Fecha y hora oficial Temperatura (ºC) Velocidad del viento (km/h) Dirección del viento Racha (km/h) Dirección de racha Precipitación (mm) Presión (hPa) Tendencia (hPa) Humedad (%)
2021-01-17 23:00:00 9.2 0 Calma 8 Sudeste 0 -- -- 100
2021-01-17 22:00:00 9 3 Sur 5 Sudeste 0.2 -- -- 100
2021-01-17 21:00:00 9.1 0 Calma 6 Norte 1.4 -- -- 99
2021-01-17 20:00:00 9.2 2 Sudoeste 8 Sudeste 0.2 -- -- 99
2021-01-17 19:00:00 9.4 0 Calma 10 Sudeste 0.4 -- -- 98
2021-01-17 18:00:00 9.7 4 Sur 11 Sudeste 0 -- -- 97
2021-01-17 17:00:00 10.1 6 Sudeste 13 Sudeste 0.2 -- -- 97
2021-01-17 16:00:00 10.3 9 Sudeste 12 Sudeste 0.4 -- -- 96
2021-01-17 15:00:00 10.5 3 Norte 6 Norte 0.2 -- -- 95
2021-01-17 14:00:00 10.6 0 Calma 9 Norte 0 -- -- 94
2021-01-17 13:00:00 9.6 4 Norte 13 Sur 0 -- -- 95
2021-01-17 12:00:00 8.1 3 Noroeste 9 Noroeste 0 -- -- 95
2021-01-17 11:00:00 6.2 4 Norte 11 Oeste 0 -- -- 96
2021-01-17 10:00:00 3.2 2 Oeste 13 Norte 0 -- -- 95
2021-01-17 09:00:00 2.2 2 Sudoeste 6 Oeste 0 -- -- 94
2021-01-17 08:00:00 1.3 3 Sudeste 6 Sudeste 0 -- -- 96
2021-01-17 07:00:00 0.5 0 Calma 13 Oeste 0 -- -- 95
2021-01-17 06:00:00 -0.8 3 Este 7 Sudoeste 0 -- -- 95
2021-01-17 05:00:00 -0.4 3 Sudoeste 6 Nordeste 0 -- -- 96
2021-01-17 04:00:00 -0.1 3 Sudoeste 6 Este 0 -- -- 94
2021-01-17 03:00:00 0.7 3 Noroeste 5 Noroeste 0 -- -- 94
2021-01-17 02:00:00 0.4 3 Sudoeste 7 Nordeste 0 -- -- 94
2021-01-17 01:00:00 1.2 3 Oeste 8 Noroeste 0 -- -- 93
2021-01-17 00:00:00 1.6 2 Sudeste 6 Oeste 0 -- -- 92
2021-01-16 23:00:00 2.3 3 Norte 8 Oeste 0 -- -- 89
2021-01-16 22:00:00 3 4 Noroeste 6 Noroeste 0 -- -- 88
2021-01-16 21:00:00 4 0 Calma 7 Norte 0 -- -- 81
2021-01-16 20:00:00 5.4 5 Sur 9 Sudeste 0 -- -- 75
2021-01-16 19:00:00 7.8 3 Noroeste 6 Norte 0 -- -- 70
2021-01-16 18:00:00 9.4 0 Calma 8 Sudoeste 0 -- -- 65
2021-01-16 17:00:00 11.6 5 Sudoeste 9 Noroeste 0 -- -- 57
2021-01-16 16:00:00 12.5 5 Noroeste 9 Oeste 0 -- -- 52
2021-01-16 15:00:00 11.8 4 Nordeste 9 Nordeste 0 -- -- 50
2021-01-16 14:00:00 10.2 5 Noroeste 7 Norte 0 -- -- 62
2021-01-16 13:00:00 8.1 3 Sudeste 7 Sudeste 0 -- -- 75
2021-01-16 12:00:00 4.3 0 Calma 6 Sudoeste 0 -- -- 95
2021-01-16 11:00:00 1.9 0 Calma 4 Este 0 -- -- 100
2021-01-16 10:00:00 -1 0 Calma 4 Oeste 0 -- -- 100
2021-01-16 09:00:00 -2.7 2 Noroeste 4 Noroeste 0 -- -- 100
2021-01-16 08:00:00 -2.5 0 Calma 6 Norte 0 -- -- 100
2021-01-16 07:00:00 -2 4 Sudoeste 8 Oeste 0 -- -- 100
2021-01-16 06:00:00 -1.7 0 Calma 5 Noroeste 0 -- -- 100
2021-01-16 05:00:00 -1.3 0 Calma 5 Sudoeste 0 -- -- 100
2021-01-16 04:00:00 -0.9 4 Noroeste 5 Noroeste 0 -- -- 99
2021-01-16 03:00:00 -0.4 0 Calma 4 Oeste 0 -- -- 99
2021-01-16 02:00:00 0.6 0 Calma 3 Sudoeste 0 -- -- 99
2021-01-16 01:00:00 1.4 4 Sudoeste 6 Sudoeste 0 -- -- 99
2021-01-16 00:00:00 2.3 3 Noroeste 5 Norte 0 -- -- 98
2021-01-15 23:00:00 3.1 0 Calma 4 Noroeste 0 -- -- 97
2021-01-15 22:00:00 4.3 2 Nordeste 5 Norte 0 -- -- 96
2021-01-15 21:00:00 5.4 0 Calma 5 Noroeste 0 -- -- 94
2021-01-15 20:00:00 6.8 0 Calma 5 Sudeste 0 -- -- 89
2021-01-15 19:00:00 7.7 0 Calma 4 Nordeste 0 -- -- 88
2021-01-15 18:00:00 8.8 2 Sudoeste 5 Oeste 0 -- -- 82
2021-01-15 17:00:00 9.6 5 Noroeste 13 Noroeste 0 -- -- 74
2021-01-15 16:00:00 9.9 10 Norte 18 Norte 0 -- -- 77
2021-01-15 15:00:00 9.8 3 Sur 8 Sudoeste 0 -- -- 84
2021-01-15 14:00:00 9.6 4 Oeste 7 Norte 0 -- -- 88
2021-01-15 13:00:00 9.3 3 Oeste 6 Oeste 0 -- -- 90
2021-01-15 12:00:00 8.7 2 Sudeste 6 Noroeste 0.2 -- -- 97
2021-01-15 11:00:00 7.7 3 Noroeste 6 Norte 0 -- -- 98
2021-01-15 10:00:00 6.4 0 Calma 6 Sudoeste 0 -- -- 99
2021-01-15 09:00:00 6.2 2 Sudeste 6 Nordeste 0 -- -- 98
2021-01-15 08:00:00 6.5 3 Norte 8 Sudeste 0.2 -- -- 97
2021-01-15 07:00:00 6.8 0 Calma 6 Sudeste 0 -- -- 96
2021-01-15 06:00:00 7.6 5 Sudeste 15 Noroeste 1.6 -- -- 96
2021-01-15 05:00:00 8.5 3 Oeste 13 Noroeste 0 -- -- 94
2021-01-15 04:00:00 8.8 9 Norte 19 Norte 0 -- -- 92
2021-01-15 03:00:00 8.1 2 Sudoeste 15 Noroeste 0 -- -- 96
2021-01-15 02:00:00 8.2 3 Oeste 8 Noroeste 0 -- -- 98
2021-01-15 01:00:00 8.2 0 Calma 5 Oeste 0 -- -- 97
2021-01-15 00:00:00 8.7 3 Sudoeste 5 Sudoeste 0.4 -- -- 97
2021-01-14 23:00:00 9 0 Calma 6 Nordeste 0.4 -- -- 96
2021-01-14 22:00:00 9.1 0 Calma 28 Norte 0.4 -- -- 96
2021-01-14 21:00:00 9 5 Noroeste 13 Noroeste 2 -- -- 100
2021-01-14 20:00:00 7.8 2 Sudeste 5 Sur 0.6 -- -- 99
2021-01-14 19:00:00 7.4 2 Sur 8 Noroeste 1.4 -- -- 99
2021-01-14 18:00:00 7.3 2 Oeste 5 Noroeste 0.8 -- -- 98
2021-01-14 17:00:00 7.3 2 Noroeste 7 Este 0.2 -- -- 97
2021-01-14 16:00:00 7.4 3 Sudeste 11 Sur 0.2 -- -- 96
2021-01-14 15:00:00 7.9 10 Sudeste 19 Sudeste 0 -- -- 87
2021-01-14 14:00:00 9.2 7 Sudoeste 15 Oeste 0 -- -- 74
2021-01-14 13:00:00 9.1 3 Sudeste 9 Este 0 -- -- 71
2021-01-14 12:00:00 6.4 2 Este 5 Este 0 -- -- 91
2021-01-14 11:00:00 2.9 2 Sur 5 Sudeste 0 -- -- 100
2021-01-14 10:00:00 1.1 2 Este 9 Oeste 0 -- -- 100
2021-01-14 09:00:00 0.3 0 Calma 6 Oeste 0 -- -- 99
2021-01-14 08:00:00 0 0 Calma 5 Noroeste 0 -- -- 99
2021-01-14 07:00:00 -0.5 2 Sur 4 Sudoeste 0 -- -- 99
2021-01-14 06:00:00 -0.6 0 Calma 4 Oeste 0 -- -- 99
2021-01-14 05:00:00 -0.3 0 Calma 3 Sudoeste 0 -- -- 99
2021-01-14 04:00:00 -0.7 0 Calma 4 Noroeste 0 -- -- 99
2021-01-14 03:00:00 -0.8 0 Calma 3 Noroeste 0 -- -- 98
2021-01-14 02:00:00 -0.5 0 Calma 2 Sudeste 0 -- -- 97
2021-01-14 01:00:00 -0.2 0 Calma 3 Oeste 0 -- -- 96
2021-01-14 00:00:00 0.5 0 Calma 3 Sudoeste 0 -- -- 95
2021-01-13 23:00:00 1.2 0 Calma 2 Noroeste 0 -- -- 94
2021-01-13 22:00:00 1.5 0 Calma 3 Oeste 0 -- -- 92
2021-01-13 21:00:00 2.5 0 Calma 4 Norte 0 -- -- 90
2021-01-13 20:00:00 3.5 0 Calma 4 Norte 0 -- -- 86
2021-01-13 19:00:00 4.8 3 Sudeste 6 Sudoeste 0 -- -- 80
2021-01-13 18:00:00 7 3 Este 9 Sudoeste 0 -- -- 72
2021-01-13 17:00:00 10.7 7 Sudoeste 10 Sudoeste 0 -- -- 62
2021-01-13 16:00:00 11.4 6 Sur 11 Sudeste 0 -- -- 59
2021-01-13 15:00:00 11.6 6 Sudeste 14 Sudoeste 0 -- -- 58
2021-01-13 14:00:00 11.4 3 Norte 8 Sur 0 -- -- 59
2021-01-13 13:00:00 11.3 0 Calma 5 Sudeste 0 -- -- 62
2021-01-13 12:00:00 8 3 Noroeste 4 Noroeste 0 -- -- 77
2021-01-13 11:00:00 5.7 0 Calma 4 Norte 0 -- -- 94
2021-01-13 10:00:00 3 0 Calma 6 Sudoeste 0 -- -- 96
2021-01-13 09:00:00 2.8 2 Este 4 Nordeste 0 -- -- 95
2021-01-13 08:00:00 2.9 0 Calma 4 Sudeste 0 -- -- 95
2021-01-13 07:00:00 3.2 5 Oeste 8 Norte 0 -- -- 97
2021-01-13 06:00:00 3.6 0 Calma 3 Sudoeste 0 -- -- 95
2021-01-13 05:00:00 3.6 2 Oeste 6 Noroeste 0 -- -- 94
2021-01-13 04:00:00 3.7 0 Calma 5 Oeste 0 -- -- 93
2021-01-13 03:00:00 3.8 2 Este 5 Norte 0 -- -- 93
2021-01-13 02:00:00 4.1 0 Calma 5 Sudoeste 0 -- -- 92
2021-01-13 01:00:00 4.2 0 Calma 3 Sudoeste 0 -- -- 91
2021-01-13 00:00:00 4.1 2 Sudoeste 4 Nordeste 0 -- -- 92
2021-01-12 23:00:00 4.2 2 Norte 5 Oeste 0 -- -- 92
2021-01-12 22:00:00 4.1 0 Calma 4 Oeste 0 -- -- 92
2021-01-12 21:00:00 3.8 0 Calma 4 Sur 0 -- -- 91
2021-01-12 20:00:00 3.9 0 Calma 7 Sudeste 0 -- -- 86
2021-01-12 19:00:00 4.7 3 Sur 5 Sur 0 -- -- 83
2021-01-12 18:00:00 6.5 2 Sur 10 Oeste 0 -- -- 79
2021-01-12 17:00:00 8.3 6 Noroeste 11 Noroeste 0 -- -- 71
2021-01-12 16:00:00 10.5 6 Oeste 14 Oeste 0 -- -- 61
2021-01-12 15:00:00 10.5 6 Noroeste 12 Sudoeste 0 -- -- 57
2021-01-12 14:00:00 10.4 5 Sudoeste 12 Oeste 0 -- -- 62
2021-01-12 13:00:00 9.8 3 Sudeste 7 Sudeste 0 -- -- 64
2021-01-12 12:00:00 7.2 2 Norte 6 Norte 0 -- -- 80
2021-01-12 11:00:00 5 2 Oeste 5 Sur 0 -- -- 89
2021-01-12 10:00:00 3.8 3 Noroeste 5 Noroeste 0 -- -- 93
2021-01-12 09:00:00 3.4 2 Sudeste 6 Norte 0 -- -- 95
2021-01-12 08:00:00 3.3 0 Calma 6 Noroeste 0 -- -- 94
2021-01-12 07:00:00 3.2 3 Sur 5 Sur 0 -- -- 94
2021-01-12 06:00:00 3.2 4 Noroeste 8 Noroeste 0 -- -- 93
2021-01-12 05:00:00 3.3 2 Sudoeste 6 Sudoeste 0 -- -- 93
2021-01-12 04:00:00 3.1 0 Calma 5 Noroeste 0 -- -- 94
2021-01-12 03:00:00 3 0 Calma 5 Noroeste 0 -- -- 94
2021-01-12 02:00:00 2.9 3 Noroeste 4 Norte 0 -- -- 94
2021-01-12 01:00:00 3 0 Calma 6 Norte 0 -- -- 93
2021-01-12 00:00:00 2.9 0 Calma 5 Nordeste 0 -- -- 92
2021-01-11 23:00:00 3 0 Calma 4 Sudoeste 0 -- -- 91
2021-01-11 22:00:00 3.2 2 Noroeste 4 Noroeste 0 -- -- 89
2021-01-11 21:00:00 3.4 0 Calma 7 Noroeste 0 -- -- 87
2021-01-11 20:00:00 3.8 0 Calma 3 Sudoeste 0 -- -- 84
2021-01-11 19:00:00 4.2 0 Calma 5 Sudoeste 0 -- -- 82
2021-01-11 18:00:00 4.9 3 Sudoeste 7 Noroeste 0 -- -- 78
2021-01-11 17:00:00 6.7 5 Noroeste 11 Nordeste 0 -- -- 69
2021-01-11 16:00:00 7.1 6 Noroeste 15 Norte 0 -- -- 68
2021-01-11 15:00:00 7.8 10 Nordeste 18 Nordeste 0 -- -- 63
2021-01-11 14:00:00 6.9 10 Nordeste 15 Nordeste 0 -- -- 69
2021-01-11 13:00:00 6.6 8 Norte 21 Norte 0 -- -- 67
2021-01-11 12:00:00 5.7 4 Norte 7 Norte 0 -- -- 76
2021-01-11 11:00:00 1 0 Calma 3 Este 0 -- -- 93
2021-01-11 10:00:00 0.8 2 Norte 5 Norte 0 -- -- 93
2021-01-11 09:00:00 0.9 3 Sudoeste 5 Oeste 0 -- -- 91
2021-01-11 08:00:00 1.7 2 Sudoeste 5 Sudoeste 0 -- -- 86
2021-01-11 07:00:00 2.6 0 Calma 4 Sudoeste 0 -- -- 85
2021-01-11 06:00:00 2.9 2 Sudoeste 7 Norte 0 -- -- 82
2021-01-11 05:00:00 4 3 Noroeste 9 Norte 0 -- -- 77
2021-01-11 04:00:00 4.5 7 Norte 12 Nordeste 0 -- -- 76
2021-01-11 03:00:00 4.4 4 Norte 13 Norte 0 -- -- 81
2021-01-11 02:00:00 4.9 9 Norte 19 Norte 0 -- -- 78
2021-01-11 01:00:00 5 8 Norte 13 Norte 0 -- -- 77
2021-01-11 00:00:00 4.4 2 Nordeste 14 Nordeste 0 -- -- 82
2021-01-10 23:00:00 4.4 4 Nordeste 13 Noroeste 0 -- -- 80
2021-01-10 22:00:00 4.7 6 Norte 19 Noroeste 0 -- -- 77
2021-01-10 21:00:00 5.1 9 Norte 18 Noroeste 0 -- -- 75
2021-01-10 20:00:00 5.2 9 Norte 17 Norte 0 -- -- 74
2021-01-10 19:00:00 5.2 8 Norte 24 Norte 0 -- -- 75
2021-01-10 18:00:00 5.1 11 Noroeste 24 Norte 0.2 -- -- 77
2021-01-10 17:00:00 5.3 15 Norte 32 Nordeste 0 -- -- 73
2021-01-10 16:00:00 5.3 11 Norte 28 Norte 0 -- -- 75
2021-01-10 15:00:00 5.2 14 Norte 27 Norte 0 -- -- 74
2021-01-10 14:00:00 5.2 14 Norte 27 Norte 0 -- -- 76
2021-01-10 13:00:00 4.9 14 Norte 24 Norte 0 -- -- 79
2021-01-10 12:00:00 4.8 13 Norte 24 Norte 0 -- -- 80
2021-01-10 11:00:00 4.4 13 Norte 26 Noroeste 0 -- -- 87
2021-01-10 10:00:00 2.2 2 Sur 7 Nordeste 0 -- -- 100
2021-01-10 09:00:00 1.8 4 Noroeste 6 Oeste 0 -- -- 100
2021-01-10 08:00:00 1.8 0 Calma 3 Norte 0 -- -- 100
2021-01-10 07:00:00 1.8 2 Norte 3 Este 0 -- -- 99
2021-01-10 06:00:00 1.9 0 Calma 3 Este 0 -- -- 99
2021-01-10 05:00:00 1.9 2 Sur 6 Nordeste 0 -- -- 99
2021-01-10 04:00:00 1.9 0 Calma 10 Noroeste 0.2 -- -- 99
2021-01-10 03:00:00 1.4 3 Noroeste 4 Norte 0 -- -- 99
2021-01-10 02:00:00 1.4 0 Calma 5 Nordeste 0 -- -- 99
2021-01-10 01:00:00 1.2 2 Norte 6 Nordeste 0 -- -- 98
2021-01-10 00:00:00 1.4 3 Noroeste 8 Oeste 0.2 -- -- 98
2021-01-09 23:00:00 1.4 5 Oeste 11 Noroeste 0.2 -- -- 97
2021-01-09 22:00:00 1.3 5 Noroeste 10 Oeste 0 -- -- 96
2021-01-09 21:00:00 1.7 5 Noroeste 10 Oeste 0.2 -- -- 94
2021-01-09 20:00:00 1.6 3 Oeste 10 Noroeste 0.4 -- -- 94
2021-01-09 19:00:00 1.7 7 Oeste 14 Oeste 0.2 -- -- 94
2021-01-09 18:00:00 1.9 4 Noroeste 18 Norte 0.2 -- -- 94
2021-01-09 17:00:00 2.3 8 Norte 23 Nordeste 0.2 -- -- 93
2021-01-09 16:00:00 2.5 8 Norte 19 Norte 0.4 -- -- 94
2021-01-09 15:00:00 2.9 7 Norte 14 Norte 0 -- -- 92
2021-01-09 14:00:00 2.6 5 Noroeste 13 Norte 0.4 -- -- 94
2021-01-09 13:00:00 2.8 7 Norte 13 Norte 0 -- -- 91
2021-01-09 12:00:00 2 3 Nordeste 8 Noroeste 0 -- -- 95
2021-01-09 11:00:00 0.9 3 Noroeste 4 Noroeste 0 -- -- 97
2021-01-09 10:00:00 0.6 0 Calma 5 Sudoeste 0 -- -- 97
2021-01-09 09:00:00 0.4 2 Sudoeste 4 Oeste 0 -- -- 95
2021-01-09 08:00:00 0.6 2 Este 3 Este 0 -- -- 94
2021-01-09 07:00:00 0.5 0 Calma 4 Norte 0 -- -- 94
2021-01-09 06:00:00 0.7 0 Calma 3 Este 0 -- -- 92
2021-01-09 05:00:00 0.5 0 Calma 9 Este 0 -- -- 94
2021-01-09 04:00:00 0.6 4 Noroeste 10 Este 0 -- -- 93
2021-01-09 03:00:00 0.2 2 Noroeste 5 Sudoeste 0 -- -- 94
2021-01-09 02:00:00 -0.1 0 Calma 6 Oeste 0 -- -- 94
2021-01-09 01:00:00 -0.4 3 Sur 6 Este 0 -- -- 94
2021-01-09 00:00:00 -0.6 2 Sur 7 Norte 0 -- -- 93
2021-01-08 23:00:00 -0.4 0 Calma 6 Este 0 -- -- 91
2021-01-08 22:00:00 0.1 2 Este 9 Este 0 -- -- 88
2021-01-08 21:00:00 0.6 0 Calma 7 Nordeste 0 -- -- 87
2021-01-08 20:00:00 1.1 4 Oeste 5 Oeste 0 -- -- 85
2021-01-08 19:00:00 1.7 3 Sudoeste 12 Norte 0 -- -- 80
2021-01-08 18:00:00 3.1 7 Norte 13 Norte 0 -- -- 73
2021-01-08 17:00:00 4.6 10 Norte 21 Nordeste 0 -- -- 66
2021-01-08 16:00:00 5.2 12 Nordeste 21 Nordeste 0 -- -- 65
2021-01-08 15:00:00 5.4 8 Norte 15 Norte 0 -- -- 66
2021-01-08 14:00:00 5.4 4 Noroeste 10 Norte 0 -- -- 66
2021-01-08 13:00:00 3 4 Norte 6 Noroeste 0 -- -- 84
2021-01-08 12:00:00 0.3 0 Calma 5 Este 0 -- -- 93
2021-01-08 11:00:00 -1.8 0 Calma 4 Noroeste 0 -- -- 98
2021-01-08 10:00:00 -3.1 0 Calma 8 Sudeste 0 -- -- 97
2021-01-08 09:00:00 -3.1 0 Calma 6 Oeste 0 -- -- 97
2021-01-08 08:00:00 -2.4 3 Nordeste 6 Norte 0 -- -- 97
2021-01-08 07:00:00 -2.4 4 Sur 5 Sur 0 -- -- 97
2021-01-08 06:00:00 -1.8 0 Calma 8 Noroeste 0 -- -- 97
2021-01-08 05:00:00 -1.5 2 Sudeste 8 Sudeste 0 -- -- 97
2021-01-08 04:00:00 -0.9 2 Sudeste 5 Noroeste 0 -- -- 96
2021-01-08 03:00:00 -0.3 3 Oeste 6 Este 0 -- -- 97
2021-01-08 02:00:00 -0.3 4 Sur 5 Sudoeste 0 -- -- 96
2021-01-08 01:00:00 -0.5 3 Oeste 4 Norte 0 -- -- 96
2021-01-08 00:00:00 -0.7 0 Calma 5 Sudoeste 0 -- -- 95
2021-01-07 23:00:00 -0.9 0 Calma 5 Norte 0 -- -- 95
2021-01-07 22:00:00 -1.2 3 Nordeste 5 Sudoeste 0 -- -- 94
2021-01-07 21:00:00 -0.6 3 Norte 5 Norte 0 -- -- 92
2021-01-07 20:00:00 0.5 2 Nordeste 5 Sudoeste 0 -- -- 88
2021-01-07 19:00:00 1.8 3 Sur 7 Nordeste 0 -- -- 82
2021-01-07 18:00:00 3.4 5 Norte 11 Norte 0 -- -- 76
2021-01-07 17:00:00 5.5 6 Nordeste 13 Nordeste 0 -- -- 70
2021-01-07 16:00:00 7.1 8 Este 13 Este 0 -- -- 58
2021-01-07 15:00:00 7.3 3 Oeste 6 Sudoeste 0 -- -- 61
2021-01-07 14:00:00 6.2 4 Sudoeste 7 Sudoeste 0 -- -- 66
2021-01-07 13:00:00 3.4 3 Noroeste 7 Nordeste 0 -- -- 84
2021-01-07 12:00:00 1.7 2 Este 5 Nordeste 0 -- -- 98
2021-01-07 11:00:00 -0.6 0 Calma 4 Sudeste 0 -- -- 100
2021-01-07 10:00:00 -3.2 0 Calma 4 Sudoeste 0 -- -- 100
2021-01-07 09:00:00 -4 2 Nordeste 4 Este 0 -- -- 99
2021-01-07 08:00:00 -4.1 0 Calma 5 Norte 0 -- -- 99
2021-01-07 07:00:00 -4.1 0 Calma 3 Oeste 0 -- -- 99
2021-01-07 06:00:00 -4 0 Calma 4 Noroeste 0 -- -- 99
2021-01-07 05:00:00 -3.8 0 Calma 5 Noroeste 0 -- -- 99
2021-01-07 04:00:00 -3.5 2 Sudoeste 6 Norte 0 -- -- 99
2021-01-07 03:00:00 -3 2 Norte 4 Sudoeste 0 -- -- 99
2021-01-07 02:00:00 -2.4 2 Oeste 5 Este 0 -- -- 100
2021-01-07 01:00:00 -2.1 0 Calma 4 Este 0 -- -- 99
2021-01-07 00:00:00 -1.3 0 Calma 6 Oeste 0 -- -- 99
2021-01-06 23:00:00 -0.4 0 Calma 5 Oeste 0 -- -- 98
2021-01-06 22:00:00 0.3 4 Noroeste 5 Norte 0 -- -- 98
2021-01-06 21:00:00 0.6 2 Sudoeste 7 Norte 0 -- -- 96
2021-01-06 20:00:00 1.9 2 Oeste 4 Sudoeste 0 -- -- 95
2021-01-06 19:00:00 3.2 0 Calma 4 Sudoeste 0 -- -- 92
2021-01-06 18:00:00 4.4 0 Calma 9 Oeste 0 -- -- 90
2021-01-06 17:00:00 4.5 6 Noroeste 12 Oeste 0 -- -- 87
2021-01-06 16:00:00 5.2 3 Norte 6 Sudoeste 0 -- -- 88
2021-01-06 15:00:00 5.4 0 Calma 6 Norte 0 -- -- 87
2021-01-06 14:00:00 6.1 2 Sudoeste 7 Sudeste 0 -- -- 85
2021-01-06 13:00:00 3.9 4 Nordeste 11 Norte 0 -- -- 100
2021-01-06 12:00:00 2.8 2 Norte 6 Noroeste 0 -- -- 100
2021-01-06 11:00:00 1.9 4 Sudoeste 6 Sudoeste 0 -- -- 100
2021-01-06 10:00:00 1.1 2 Sudoeste 8 Oeste 0 -- -- 100
2021-01-06 09:00:00 0.8 3 Sudeste 5 Noroeste 0 -- -- 100
2021-01-06 08:00:00 0.7 2 Norte 5 Norte 0 -- -- 100
2021-01-06 07:00:00 0.5 2 Norte 5 Noroeste 0 -- -- 100
2021-01-06 06:00:00 0.8 0 Calma 4 Este 0 -- -- 100
2021-01-06 05:00:00 0.7 0 Calma 3 Noroeste 0 -- -- 100
2021-01-06 04:00:00 0.6 0 Calma 4 Sudoeste 0 -- -- 100
2021-01-06 03:00:00 0.3 0 Calma 6 Sudoeste 0 -- -- 100
2021-01-06 02:00:00 0.5 3 Oeste 6 Sudoeste 0 -- -- 100
2021-01-06 01:00:00 0.8 0 Calma 4 Sudoeste 0 -- -- 100
2021-01-06 00:00:00 0.8 3 Nordeste 5 Noroeste 0 -- -- 100
2021-01-05 23:00:00 1.1 4 Este 8 Sudeste 0 -- -- 100
2021-01-05 22:00:00 1.5 0 Calma 5 Nordeste 0 -- -- 100
2021-01-05 21:00:00 1.5 2 Norte 4 Norte 0 -- -- 100
2021-01-05 20:00:00 1.7 2 Sur 4 Sudoeste 0 -- -- 100
2021-01-05 19:00:00 2 3 Nordeste 4 Noroeste 0 -- -- 99
2021-01-05 18:00:00 2.1 4 Noroeste 8 Este 0 -- -- 99
2021-01-05 17:00:00 2.4 0 Calma 9 Noroeste 0.6 -- -- 99
2021-01-05 16:00:00 2.6 0 Calma 5 Este 1 -- -- 99
2021-01-05 15:00:00 2.5 0 Calma 2 Oeste 0 -- -- 100
2021-01-05 14:00:00 1.8 0 Calma 6 Noroeste 0 -- -- 100
2021-01-05 13:00:00 1.3 0 Calma 5 Nordeste 0.6 -- -- 100
2021-01-05 12:00:00 0.7 3 Nordeste 6 Norte 0.2 -- -- 100
2021-01-05 11:00:00 0.5 0 Calma 5 Oeste 0.6 -- -- 100
2021-01-05 10:00:00 0.3 0 Calma 6 Oeste 1.4 -- -- 100
2021-01-05 09:00:00 0.2 4 Oeste 8 Noroeste 0.6 -- -- 100
2021-01-05 08:00:00 0.1 0 Calma 6 Norte 1.8 -- -- 100
2021-01-05 07:00:00 0.1 3 Sudeste 6 Noroeste 4 -- -- 100
2021-01-05 06:00:00 0.4 3 Oeste 8 Sudeste 1.6 -- -- 100
2021-01-05 05:00:00 0.5 3 Este 8 Este 2 -- -- 100
2021-01-05 04:00:00 0.3 3 Sudeste 6 Sur 0.6 -- -- 100
2021-01-05 03:00:00 0.1 0 Calma 4 Noroeste 1.2 -- -- 100
2021-01-05 02:00:00 0.1 2 Norte 4 Nordeste 1.2 -- -- 100
2021-01-05 01:00:00 0.1 0 Calma 5 Noroeste 1.8 -- -- 100
2021-01-05 00:00:00 0.1 5 Noroeste 7 Oeste 2.2 -- -- 100
2021-01-04 23:00:00 0.3 4 Sudoeste 6 Norte 1 -- -- 100
2021-01-04 22:00:00 0.3 4 Norte 12 Sudeste 0 -- -- 100
2021-01-04 21:00:00 0.3 4 Sur 11 Norte 2.2 -- -- 100
2021-01-04 20:00:00 0.6 0 Calma 14 Este 0 -- -- 100
2021-01-04 19:00:00 0.2 4 Sudeste 9 Sudeste 1 -- -- 99
2021-01-04 18:00:00 0.3 4 Este 12 Sudeste 1.8 -- -- 98
2021-01-04 17:00:00 0.5 7 Este 12 Sudeste 1.6 -- -- 99
2021-01-04 16:00:00 0.6 4 Sur 6 Sur 0.6 -- -- 99
2021-01-04 15:00:00 0.5 4 Sudeste 8 Oeste 1.4 -- -- 98
2021-01-04 14:00:00 0.6 3 Sudeste 9 Sudeste 2.2 -- -- 98
2021-01-04 13:00:00 0.6 0 Calma 13 Sudeste 2 -- -- 98
2021-01-04 12:00:00 0.9 5 Nordeste 9 Noroeste 1.2 -- -- 98
2021-01-04 11:00:00 1 5 Sudeste 10 Sudeste 1 -- -- 98
2021-01-04 10:00:00 0.5 5 Sudeste 13 Sudeste 2.4 -- -- 97
2021-01-04 09:00:00 1.3 4 Sur 24 Oeste 3 -- -- 94
2021-01-04 08:00:00 2.3 14 Noroeste 26 Noroeste 2.2 -- -- 92
2021-01-04 07:00:00 3.5 9 Oeste 31 Oeste 0.4 -- -- 86
2021-01-04 06:00:00 3.5 8 Oeste 24 Sudoeste 0.4 -- -- 86
2021-01-04 05:00:00 2.9 4 Sudeste 19 Noroeste 0.8 -- -- 89
2021-01-04 04:00:00 3.1 6 Oeste 32 Oeste 1.2 -- -- 88
2021-01-04 03:00:00 3.2 5 Sudoeste 18 Oeste 1 -- -- 88
2021-01-04 02:00:00 3.5 4 Noroeste 20 Oeste 0 -- -- 85
2021-01-04 01:00:00 3.2 12 Sudeste 25 Oeste 0.2 -- -- 88
2021-01-04 00:00:00 3.3 13 Oeste 42 Sudoeste 0.4 -- -- 86
2021-01-03 23:00:00 3.3 10 Oeste 21 Oeste 0.4 -- -- 85
2021-01-03 22:00:00 3.4 6 Este 21 Sudoeste 0.6 -- -- 89
2021-01-03 21:00:00 3.3 2 Sudeste 27 Noroeste 0.6 -- -- 91
2021-01-03 20:00:00 4.1 8 Oeste 13 Oeste 0 -- -- 83
2021-01-03 19:00:00 4.1 8 Oeste 25 Oeste 0.4 -- -- 84
2021-01-03 18:00:00 4.6 10 Oeste 27 Oeste 0.4 -- -- 83
2021-01-03 17:00:00 5 5 Nordeste 18 Sudoeste 0 -- -- 86
2021-01-03 16:00:00 5.1 7 Oeste 21 Oeste 0.4 -- -- 85
2021-01-03 15:00:00 5 13 Oeste 32 Oeste 0.6 -- -- 83
2021-01-03 14:00:00 5.3 10 Oeste 28 Oeste 0.8 -- -- 86
2021-01-03 13:00:00 6.2 9 Sudoeste 23 Noroeste 0.6 -- -- 82
2021-01-03 12:00:00 5.2 8 Oeste 20 Noroeste 0.6 -- -- 83
2021-01-03 11:00:00 4.8 4 Este 12 Este 0.2 -- -- 91
2021-01-03 10:00:00 3.8 4 Oeste 15 Sudoeste 0.6 -- -- 95
2021-01-03 09:00:00 2.6 3 Sur 13 Noroeste 0.4 -- -- 98
2021-01-03 08:00:00 2.4 4 Sudoeste 9 Sudoeste 0.2 -- -- 98
2021-01-03 07:00:00 2.3 3 Nordeste 21 Sudeste 0.4 -- -- 96
2021-01-03 06:00:00 2.2 9 Sur 17 Sur 2 -- -- 96
2021-01-03 05:00:00 2.7 3 Sudeste 9 Noroeste 1.4 -- -- 97
2021-01-03 04:00:00 2.6 3 Sur 7 Sudeste 0 -- -- 97
2021-01-03 03:00:00 2.5 5 Sudeste 11 Sudoeste 0 -- -- 98
2021-01-03 02:00:00 2.1 6 Nordeste 13 Nordeste 0.8 -- -- 97
2021-01-03 01:00:00 2 3 Nordeste 9 Sudeste 0.2 -- -- 98
2021-01-03 00:00:00 1.5 3 Noroeste 9 Noroeste 1.8 -- -- 97
2021-01-02 23:00:00 1.5 2 Este 8 Sudeste 0.2 -- -- 96
2021-01-02 22:00:00 1.8 4 Sudeste 8 Sudeste 1.6 -- -- 95
2021-01-02 21:00:00 2.4 2 Sudeste 12 Sur 0.8 -- -- 93
2021-01-02 20:00:00 2.8 2 Sur 15 Noroeste 2 -- -- 93
2021-01-02 19:00:00 3.8 10 Noroeste 22 Norte 1.2 -- -- 91
2021-01-02 18:00:00 4.6 5 Oeste 21 Noroeste 0 -- -- 83
2021-01-02 17:00:00 5.8 12 Noroeste 28 Norte 0 -- -- 77
2021-01-02 16:00:00 6.7 13 Norte 29 Norte 0 -- -- 66
2021-01-02 15:00:00 6.9 17 Norte 35 Nordeste 0 -- -- 58
2021-01-02 14:00:00 6.3 11 Noroeste 22 Noroeste 0 -- -- 73